Vandenberg Air Force Base
KVBG : now visible

Airfield :











YOU CAN JOIN US ON...

 
LOGIN :

Register | Disclaimer

   EN    FR    IT 

 









Legend :    VFR   Marginal VFR   IFR   Intensive IFR   Very Intensive IFR
Visi :
Ceiling :
>= 8 km
>= 3000ft
5 to 8 km
1000 to 3000 ft
1500m to 5 km
500 to 1000 ft
800 to 1500m
200 to 500 ft
< 800m
< 200 ft
Symbols :   Thunderstorms  Fog  Heavy snow  Heavy precipitations  Wind > 20 kt






- Airport Elevation : 369 ft


KVBG - Vandenberg Air Force Base

CURRENT METAR :
  • 201113Z AUTO 13007KT 1 3/8SM BR OVC001 07/07 A3008 RMK AO2 SLP190

EXPIRED METARs :
  • 201058Z AUTO 13006KT 1 1/8SM BR OVC001 07/07 A3009 RMK AO2 SLP193 T00740071 VISNO RWY12 $
  • 201053Z AUTO 13005KT 1 1/8SM BR OVC001 07/07 A3009 RMK AO2 SLP193
  • 201043Z AUTO 13006KT 1SM R30/P6000FT BR VV001 08/07 A3009 RMK AO2 SLP193
  • 201028Z AUTO 13006KT 7/8SM R30/P6000FT BR VV001 08/08 A3009 RMK AO2 SLP193
  • 201008Z AUTO 13005KT 3/4SM R30/5000FT BR VV001 08/08 A3009 RMK AO2 SLP193
  • 200958Z AUTO 14005KT 7/8SM R30/P6000FT BR VV001 08/08 A3010 RMK AO2 SLP196 T00840080 VISNO RWY12 $
  • 200948Z AUTO 14004KT 1SM R30/P6000FT BR VV001 09/08 A3010 RMK AO2 VIS 1V2 SLP196 VISNO RWY12 $
  • 200928Z AUTO 00000KT 3SM BR OVC001 09/08 A3009 RMK AO2 SLP193
  • 200858Z AUTO 15005KT 7SM OVC002 09/09 A3009 RMK AO2 SLP193 T00920087 55003 VISNO RWY12 $
  • 200843Z AUTO 16003KT 9SM OVC003 09/09 A3009 RMK AO2 SLP193

TAF TAF KVBG
Valid from the 19 at 23:00 until the 21 at 05:00 UTC


192310Z 1923/2105 33012KT 9999 FEW005 QNH3006INS
BECMG 2002/2003 VRB06KT 9999 FEW005 QNH3003INS
BECMG 2006/2007 VRB06KT 1200 BR BKN002 QNH3004INS
BECMG 2012/2013 10007KT 9999 NSW FEW005 QNH3007INS
BECMG 2018/2019 31012KT 9999 SCT250 QNH3011INS
BECMG 2102/2103 03007KT 9999 FEW250 QNH3009INS TX19/2020Z TN05/2014Z LAST NO AMDS AFT 2001 NEXT 2015



MET'MAP, your aeronautical weather chart ! - Copyright ORBIFLY December 2007 - Disclaimer

ORBIFLY MET'MAP TEAM :

Programming & Development : Alexandra Zaïnal
Concept & original design : Baudouin d'Aumeries
Assistance for programming : Marc-Olivier Méhu
Technical & hardware support : Manuel Goepfert

Contact : metmap@orbifly.com




SOURCES & CREDITS :

   NOAA       Earth
Advisory